Time;durP1;ratioP1;P1;durP2;ratioP2;P2;SDS_P1;SDS_P2;PMS_P1;PMS_P2;Temp;Humidity;BMP_temperature;BMP_pressure;BME280_temperature;BME280_humidity;BME280_pressure;Samples;Min_cycle;Max_cycle;Signal;HPM_P1;HPM_P2
2021/12/02 00:02:24;;;;;;;1.40;1.13;;;6.90;87.40;;;;;;5020270;28;20431;-75
2021/12/02 00:04:50;;;;;;;4.70;1.10;;;6.80;88.00;;;;;;4970557;28;20187;-74
2021/12/02 00:07:16;;;;;;;1.53;0.97;;;6.80;88.30;;;;;;4965430;28;20224;-73
2021/12/02 00:09:42;;;;;;;1.57;0.90;;;6.80;88.60;;;;;;5017653;28;20578;-73
2021/12/02 00:12:09;;;;;;;1.10;1.00;;;6.70;88.90;;;;;;5031716;28;20857;-75
2021/12/02 00:14:45;;;;;;;1.40;1.03;;;6.70;89.30;;;;;;5042243;28;20210;-75
2021/12/02 00:17:23;;;;;;;1.10;0.90;;;6.70;89.60;;;;;;4970862;28;20446;-75
2021/12/02 00:22:59;;;;;;;1.97;1.00;;;6.60;90.00;;;;;;4989290;28;20433;-76
2021/12/02 00:25:25;;;;;;;2.60;0.90;;;6.50;90.00;;;;;;4963779;28;20792;-76
2021/12/02 00:27:52;;;;;;;1.10;0.90;;;6.50;90.00;;;;;;4962224;28;20447;-75
2021/12/02 00:30:18;;;;;;;4.00;1.00;;;6.50;89.60;;;;;;4969710;28;20478;-75
2021/12/02 00:32:46;;;;;;;2.97;1.27;;;6.50;89.50;;;;;;5011618;28;20438;-76
2021/12/02 00:35:12;;;;;;;5.13;1.00;;;6.50;89.60;;;;;;4959808;28;20913;-75
2021/12/02 00:37:37;;;;;;;2.50;1.80;;;6.50;89.50;;;;;;4970136;28;20542;-75
2021/12/02 00:40:05;;;;;;;1.30;0.97;;;6.50;89.50;;;;;;4965760;28;20195;-75
2021/12/02 00:42:34;;;;;;;2.30;1.20;;;6.40;89.60;;;;;;4960532;28;20446;-75
2021/12/02 00:45:03;;;;;;;2.60;1.37;;;6.40;89.70;;;;;;4965082;28;20446;-74
2021/12/02 00:47:29;;;;;;;1.90;1.07;;;6.30;89.90;;;;;;4966169;28;20452;-75
2021/12/02 00:49:54;;;;;;;4.00;1.27;;;6.30;89.60;;;;;;4964978;28;20477;-75
2021/12/02 00:52:21;;;;;;;1.20;0.90;;;6.30;89.50;;;;;;4969963;28;20195;-75
2021/12/02 00:54:48;;;;;;;1.10;0.93;;;6.30;89.20;;;;;;4970565;28;20192;-76
2021/12/02 00:57:13;;;;;;;1.03;0.90;;;6.30;88.70;;;;;;4986804;28;20869;-75
2021/12/02 00:59:40;;;;;;;1.50;1.10;;;6.30;88.30;;;;;;4970742;28;20430;-76
2021/12/02 01:02:07;;;;;;;2.97;1.00;;;6.30;88.30;;;;;;4960190;28;20439;-74
2021/12/02 01:04:33;;;;;;;1.93;0.97;;;6.20;88.40;;;;;;4965574;28;20442;-76
2021/12/02 01:06:59;;;;;;;1.80;1.03;;;6.20;88.40;;;;;;4974345;28;20454;-75
2021/12/02 01:09:25;;;;;;;2.23;1.00;;;6.20;88.40;;;;;;4974915;28;20203;-74
2021/12/02 01:11:54;;;;;;;2.80;1.10;;;6.20;88.40;;;;;;4975161;28;20457;-74
2021/12/02 01:14:20;;;;;;;3.00;1.00;;;6.20;88.40;;;;;;4968837;28;20270;-74
2021/12/02 01:16:46;;;;;;;2.47;1.30;;;6.20;88.30;;;;;;4967222;28;20956;-75
2021/12/02 01:19:12;;;;;;;1.70;1.10;;;6.20;88.30;;;;;;4969909;28;20492;-76
2021/12/02 01:21:42;;;;;;;2.77;1.40;;;6.20;88.60;;;;;;4967894;28;20196;-75
2021/12/02 01:24:12;;;;;;;1.17;0.93;;;6.20;88.90;;;;;;4967575;28;20422;-75
2021/12/02 01:26:38;;;;;;;1.73;1.07;;;6.30;88.90;;;;;;4966081;28;20438;-76
2021/12/02 01:29:04;;;;;;;2.60;1.10;;;6.30;88.60;;;;;;4965556;28;20434;-75
2021/12/02 01:31:32;;;;;;;2.60;1.10;;;6.20;88.70;;;;;;4967510;28;20462;-75
2021/12/02 01:34:01;;;;;;;1.53;1.20;;;6.20;88.90;;;;;;4968475;28;20431;-76
2021/12/02 01:36:33;;;;;;;1.73;1.03;;;6.20;88.90;;;;;;4960441;28;20451;-75
2021/12/02 01:39:14;;;;;;;1.50;0.90;;;6.10;89.30;;;;;;4961842;28;20447;-76
2021/12/02 01:41:48;;;;;;;2.07;0.93;;;6.10;89.60;;;;;;4962259;28;20455;-75
2021/12/02 01:44:16;;;;;;;1.90;0.87;;;6.20;89.70;;;;;;4964393;28;20504;-75
2021/12/02 01:46:42;;;;;;;2.63;1.17;;;6.30;89.50;;;;;;4987059;28;20443;-74
2021/12/02 01:49:11;;;;;;;1.67;1.00;;;6.20;89.30;;;;;;4989896;28;20786;-75
2021/12/02 01:55:11;;;;;;;5.10;1.00;;;6.20;89.90;;;;;;4985218;28;20397;-73
2021/12/02 01:57:41;;;;;;;2.13;1.00;;;6.10;90.10;;;;;;4986970;28;20443;-74
2021/12/02 02:00:43;;;;;;;2.10;1.20;;;6.00;90.00;;;;;;5004515;28;20422;-73
2021/12/02 02:03:10;;;;;;;2.37;1.30;;;5.90;90.80;;;;;;4965608;28;20950;-74
2021/12/02 02:05:36;;;;;;;1.40;1.30;;;5.80;91.50;;;;;;4960193;28;20435;-74
2021/12/02 02:08:10;;;;;;;1.80;1.10;;;5.70;91.90;;;;;;5029837;28;20445;-73
2021/12/02 02:10:40;;;;;;;1.80;0.80;;;5.60;92.40;;;;;;4958890;28;20485;-74
2021/12/02 02:13:08;;;;;;;2.83;1.07;;;5.60;92.70;;;;;;4963584;28;20454;-75
2021/12/02 02:15:35;;;;;;;2.73;1.03;;;5.50;92.80;;;;;;4964783;28;20605;-75
2021/12/02 02:18:08;;;;;;;2.50;1.20;;;5.40;93.00;;;;;;4961763;28;20465;-75
2021/12/02 02:20:41;;;;;;;3.47;1.03;;;5.30;93.20;;;;;;4962910;28;20431;-74
2021/12/02 02:23:11;;;;;;;1.40;1.00;;;5.20;93.60;;;;;;4956691;28;20813;-74
2021/12/02 02:25:37;;;;;;;2.80;1.10;;;5.10;93.80;;;;;;4960093;28;20430;-75
2021/12/02 02:28:03;;;;;;;1.90;0.93;;;5.00;94.00;;;;;;4956530;28;20988;-72
2021/12/02 02:30:29;;;;;;;2.90;1.20;;;5.10;93.60;;;;;;5008225;28;20826;-74
2021/12/02 02:32:55;;;;;;;2.17;1.00;;;5.10;93.70;;;;;;4982390;28;20435;-73
2021/12/02 02:35:21;;;;;;;2.97;1.10;;;5.10;93.70;;;;;;4970718;28;20183;-75
2021/12/02 02:37:47;;;;;;;4.60;0.90;;;5.10;93.90;;;;;;4961928;28;20447;-75
2021/12/02 02:40:15;;;;;;;3.33;1.10;;;5.10;94.10;;;;;;4968086;28;20439;-74
2021/12/02 02:42:44;;;;;;;1.10;0.80;;;5.10;94.10;;;;;;4959195;28;20203;-73
2021/12/02 02:45:10;;;;;;;0.90;0.70;;;5.00;94.10;;;;;;4967193;28;20446;-74
2021/12/02 02:47:36;;;;;;;1.13;0.90;;;5.00;94.10;;;;;;4966856;28;20454;-72
2021/12/02 02:50:02;;;;;;;0.97;0.70;;;4.90;93.90;;;;;;4962566;28;20747;-72
2021/12/02 02:52:30;;;;;;;3.07;0.90;;;4.90;93.90;;;;;;4969139;28;20202;-75
2021/12/02 02:54:55;;;;;;;1.03;0.70;;;4.90;93.90;;;;;;4961343;28;20813;-73
2021/12/02 02:57:25;;;;;;;1.53;0.97;;;4.90;93.80;;;;;;4963674;28;20439;-74
2021/12/02 03:00:05;;;;;;;1.57;0.90;;;4.90;93.70;;;;;;4965584;28;20184;-73
2021/12/02 03:02:57;;;;;;;2.60;1.03;;;4.90;93.80;;;;;;4966901;28;20438;-73
2021/12/02 03:05:36;;;;;;;1.67;1.00;;;4.90;93.90;;;;;;4963215;28;20791;-73
2021/12/02 03:08:12;;;;;;;1.80;1.10;;;4.80;94.00;;;;;;4999529;28;20462;-74
2021/12/02 03:18:26;;;;;;;2.90;1.10;;;4.80;94.60;;;;;;4976214;28;20442;-73
2021/12/02 03:20:51;;;;;;;3.30;1.30;;;4.80;94.70;;;;;;5010208;28;20431;-72
2021/12/02 03:23:17;;;;;;;2.33;1.30;;;4.80;94.70;;;;;;4961385;28;20199;-75
2021/12/02 03:25:43;;;;;;;3.23;1.40;;;4.80;94.90;;;;;;4979238;28;20187;-73
2021/12/02 03:28:08;;;;;;;1.50;1.03;;;4.80;94.90;;;;;;4966711;28;20216;-73
2021/12/02 03:30:34;;;;;;;1.03;1.00;;;4.80;95.00;;;;;;4969759;28;20219;-74
2021/12/02 03:33:00;;;;;;;2.53;1.10;;;4.80;94.90;;;;;;4969531;28;20184;-72
2021/12/02 03:35:26;;;;;;;1.40;1.00;;;4.80;94.90;;;;;;4964181;28;20191;-73
2021/12/02 03:37:52;;;;;;;3.93;1.43;;;4.80;94.80;;;;;;4966131;28;20209;-74
2021/12/02 03:40:18;;;;;;;3.00;0.97;;;4.80;94.80;;;;;;4971842;28;20431;-75
2021/12/02 03:42:53;;;;;;;1.53;0.97;;;4.80;94.60;;;;;;4962881;28;20190;-75
2021/12/02 03:45:22;;;;;;;2.70;1.00;;;4.80;94.30;;;;;;4965809;28;20422;-75
2021/12/02 03:47:47;;;;;;;1.67;0.70;;;4.80;94.10;;;;;;4970850;28;20453;-73
2021/12/02 03:50:13;;;;;;;2.67;1.20;;;4.80;94.00;;;;;;4977485;28;20466;-73
2021/12/02 03:52:39;;;;;;;2.90;1.20;;;4.80;94.10;;;;;;4972043;28;20668;-72
2021/12/02 03:55:05;;;;;;;2.87;1.20;;;4.80;94.10;;;;;;4963189;28;20211;-72
2021/12/02 03:57:32;;;;;;;3.00;0.90;;;4.80;94.20;;;;;;4973756;28;20203;-75
2021/12/02 03:59:59;;;;;;;1.57;1.00;;;4.80;94.20;;;;;;4983621;28;20437;-72
2021/12/02 04:02:25;;;;;;;0.80;0.80;;;4.90;94.20;;;;;;4980932;28;20555;-73
2021/12/02 04:04:51;;;;;;;4.20;1.27;;;4.80;94.10;;;;;;4971376;28;21109;-73
2021/12/02 04:07:18;;;;;;;4.60;1.03;;;5.00;94.00;;;;;;4967206;28;20461;-74
2021/12/02 04:09:46;;;;;;;2.10;1.23;;;5.00;93.90;;;;;;4970217;28;20681;-73
2021/12/02 04:14:42;;;;;;;3.10;1.47;;;4.90;94.00;;;;;;4969904;28;20454;-75
2021/12/02 04:17:09;;;;;;;0.90;0.87;;;4.90;94.20;;;;;;4968276;28;20989;-73
2021/12/02 04:19:37;;;;;;;5.17;1.20;;;4.90;94.20;;;;;;4965802;28;20441;-73
2021/12/02 04:22:03;;;;;;;1.07;0.77;;;4.80;94.50;;;;;;4971394;28;20569;-73
2021/12/02 04:24:29;;;;;;;1.90;1.00;;;4.70;94.80;;;;;;4968524;28;20434;-76
2021/12/02 04:26:55;;;;;;;5.17;1.67;;;4.80;95.00;;;;;;5045424;28;20509;-73
2021/12/02 04:29:23;;;;;;;4.93;1.00;;;4.80;95.00;;;;;;5023572;28;20266;-75
2021/12/02 04:31:49;;;;;;;1.43;1.00;;;4.80;94.90;;;;;;4966790;28;20445;-72
2021/12/02 04:34:16;;;;;;;1.50;1.00;;;4.90;94.70;;;;;;4970223;28;20768;-72
2021/12/02 04:36:43;;;;;;;1.97;1.10;;;4.80;94.70;;;;;;4964398;28;20455;-75
2021/12/02 04:39:11;;;;;;;1.17;0.80;;;4.90;94.70;;;;;;5046883;28;20485;-73
2021/12/02 04:41:37;;;;;;;4.47;1.30;;;4.80;94.70;;;;;;5021165;28;20435;-72
2021/12/02 04:44:04;;;;;;;2.90;1.20;;;4.90;94.60;;;;;;4967794;28;20442;-73
2021/12/02 04:46:29;;;;;;;1.63;1.00;;;4.90;94.60;;;;;;4969556;28;20214;-73
2021/12/02 04:48:55;;;;;;;2.27;1.10;;;5.00;94.70;;;;;;4972869;28;20462;-72
2021/12/02 04:51:21;;;;;;;3.27;1.10;;;4.90;94.60;;;;;;4975872;28;20278;-75
2021/12/02 04:53:47;;;;;;;2.93;1.10;;;4.90;94.60;;;;;;4973401;28;20714;-75
2021/12/02 04:56:13;;;;;;;3.10;1.27;;;4.90;94.70;;;;;;4967945;28;20226;-74
2021/12/02 04:58:38;;;;;;;3.50;1.20;;;4.90;94.70;;;;;;4958353;28;20427;-73
2021/12/02 05:01:04;;;;;;;1.60;1.10;;;4.90;94.60;;;;;;4967122;28;20195;-75
2021/12/02 05:03:30;;;;;;;3.00;1.30;;;4.80;94.80;;;;;;4968260;28;20438;-73
2021/12/02 05:05:56;;;;;;;1.83;1.00;;;4.80;94.90;;;;;;4965407;28;20222;-73
2021/12/02 05:08:21;;;;;;;4.70;1.40;;;4.90;94.80;;;;;;4968858;28;20224;-74
2021/12/02 05:10:47;;;;;;;2.87;1.10;;;4.90;94.60;;;;;;4969422;28;20307;-74
2021/12/02 05:13:13;;;;;;;3.50;1.30;;;4.90;94.60;;;;;;4964352;28;20206;-74
2021/12/02 05:15:38;;;;;;;1.20;1.17;;;4.90;94.60;;;;;;4967657;28;20187;-74
2021/12/02 05:18:04;;;;;;;1.00;1.00;;;4.90;94.70;;;;;;4963001;28;20213;-76
2021/12/02 05:20:30;;;;;;;1.80;1.00;;;4.90;94.40;;;;;;4963940;28;20254;-75
2021/12/02 05:22:56;;;;;;;2.73;1.47;;;4.90;94.50;;;;;;4961835;28;20279;-74
2021/12/02 05:25:22;;;;;;;4.30;1.40;;;4.80;94.70;;;;;;4962734;28;20522;-76
2021/12/02 05:27:48;;;;;;;1.70;1.10;;;4.80;94.90;;;;;;4962502;28;21048;-74
2021/12/02 05:30:13;;;;;;;2.40;1.10;;;4.90;94.80;;;;;;4967281;28;20215;-74
2021/12/02 05:32:39;;;;;;;2.00;1.23;;;4.90;94.80;;;;;;4969878;28;20211;-74
2021/12/02 05:35:06;;;;;;;2.20;1.10;;;4.80;94.90;;;;;;4964121;28;20187;-75
2021/12/02 05:37:32;;;;;;;1.90;0.93;;;4.80;94.90;;;;;;4965594;28;20583;-75
2021/12/02 05:39:57;;;;;;;2.93;1.27;;;4.80;95.10;;;;;;4975623;28;20439;-75
2021/12/02 05:42:23;;;;;;;1.80;1.17;;;4.70;95.20;;;;;;4970347;28;20198;-74
2021/12/02 05:44:49;;;;;;;1.80;1.17;;;4.80;95.20;;;;;;5026015;28;20984;-75
2021/12/02 05:47:15;;;;;;;1.57;0.93;;;4.80;95.10;;;;;;4979608;28;20208;-75
2021/12/02 05:49:41;;;;;;;6.43;1.47;;;4.80;95.10;;;;;;4977291;28;20215;-75
2021/12/02 05:52:07;;;;;;;1.60;1.10;;;4.80;95.00;;;;;;4977709;28;20188;-74
2021/12/02 05:54:33;;;;;;;2.10;1.10;;;4.80;94.90;;;;;;4966551;28;20451;-74
2021/12/02 05:56:58;;;;;;;2.23;1.30;;;4.80;94.90;;;;;;4964820;28;20475;-75
2021/12/02 05:59:25;;;;;;;2.13;0.93;;;4.70;95.10;;;;;;4964868;28;20454;-75
2021/12/02 06:01:51;;;;;;;1.23;1.00;;;4.70;95.10;;;;;;4961466;28;20183;-75
2021/12/02 06:04:17;;;;;;;1.77;1.20;;;4.70;95.00;;;;;;4961169;28;20419;-75
2021/12/02 06:06:43;;;;;;;2.30;1.10;;;4.70;95.00;;;;;;4968878;28;20790;-75
2021/12/02 06:09:09;;;;;;;2.73;1.37;;;4.70;94.70;;;;;;4968602;28;20445;-75
2021/12/02 06:11:35;;;;;;;2.30;1.17;;;4.80;94.60;;;;;;4961634;28;20481;-74
2021/12/02 06:14:03;;;;;;;1.50;1.10;;;4.80;94.60;;;;;;4964281;28;20441;-74
2021/12/02 06:16:29;;;;;;;4.03;1.30;;;4.70;94.70;;;;;;4959063;28;20204;-75
2021/12/02 06:18:54;;;;;;;1.43;1.00;;;4.60;94.80;;;;;;4962538;28;20534;-75
2021/12/02 06:21:20;;;;;;;5.90;1.20;;;4.60;94.90;;;;;;4964932;28;20972;-76
2021/12/02 06:23:46;;;;;;;1.57;1.10;;;4.70;95.00;;;;;;5006672;28;20233;-75
2021/12/02 06:26:12;;;;;;;2.50;0.90;;;4.60;94.80;;;;;;4961662;28;20439;-75
2021/12/02 06:28:38;;;;;;;2.07;1.40;;;4.60;94.60;;;;;;4970343;28;20191;-76
2021/12/02 06:31:06;;;;;;;4.77;1.77;;;4.60;94.80;;;;;;4996671;28;20625;-76
2021/12/02 06:33:32;;;;;;;2.50;1.50;;;4.60;94.80;;;;;;4961451;28;20663;-75
2021/12/02 06:35:58;;;;;;;4.33;1.47;;;4.50;94.90;;;;;;4974100;28;20460;-75
2021/12/02 06:38:24;;;;;;;2.43;1.20;;;4.50;95.00;;;;;;4965006;28;20448;-77
2021/12/02 06:40:51;;;;;;;1.23;1.20;;;4.50;94.90;;;;;;4971442;28;20964;-74
2021/12/02 06:43:16;;;;;;;1.80;1.20;;;4.50;94.90;;;;;;4970481;28;20195;-75
2021/12/02 06:45:44;;;;;;;2.13;1.00;;;4.40;95.00;;;;;;4963354;28;20425;-76
2021/12/02 06:48:10;;;;;;;4.97;1.27;;;4.40;95.00;;;;;;4964025;28;21039;-75
2021/12/02 06:50:37;;;;;;;2.27;1.20;;;4.30;95.00;;;;;;4963164;28;20458;-74
2021/12/02 06:53:03;;;;;;;1.80;1.00;;;4.30;95.00;;;;;;4975168;28;20433;-75
2021/12/02 06:55:29;;;;;;;1.30;1.03;;;4.30;95.10;;;;;;4976572;28;21052;-74
2021/12/02 06:57:55;;;;;;;2.23;1.10;;;4.20;94.90;;;;;;4972490;28;20514;-74
2021/12/02 07:00:22;;;;;;;2.17;1.00;;;4.20;95.00;;;;;;4997859;28;20493;-74
2021/12/02 07:02:48;;;;;;;1.70;1.20;;;4.20;95.00;;;;;;4974454;28;20841;-76
2021/12/02 07:05:16;;;;;;;1.70;1.33;;;4.20;95.00;;;;;;4964276;28;20448;-74
2021/12/02 07:07:43;;;;;;;1.43;1.00;;;4.10;95.10;;;;;;4962523;28;20543;-75
2021/12/02 07:10:31;;;;;;;2.37;1.20;;;4.10;95.20;;;;;;4987279;28;20513;-77
2021/12/02 07:12:57;;;;;;;2.20;1.37;;;4.10;95.30;;;;;;4977940;28;20430;-76
2021/12/02 07:15:27;;;;;;;2.30;1.30;;;4.20;95.40;;;;;;4973266;28;20492;-74
2021/12/02 07:17:58;;;;;;;2.93;1.40;;;4.20;95.30;;;;;;4964601;28;20450;-74
2021/12/02 07:20:25;;;;;;;1.77;1.10;;;4.20;95.30;;;;;;5005838;28;20479;-76
2021/12/02 07:22:51;;;;;;;3.67;1.27;;;4.20;95.40;;;;;;4969762;28;20414;-78
2021/12/02 07:25:17;;;;;;;4.40;1.20;;;4.30;95.30;;;;;;4971182;28;20453;-76
2021/12/02 07:27:43;;;;;;;5.70;2.83;;;4.20;95.10;;;;;;4970357;28;20446;-74
2021/12/02 07:30:09;;;;;;;7.20;2.87;;;4.30;95.00;;;;;;5012009;28;20466;-75
2021/12/02 07:32:39;;;;;;;8.97;3.60;;;4.30;94.80;;;;;;4977344;28;20430;-73
2021/12/02 07:35:10;;;;;;;2.10;1.87;;;4.30;94.60;;;;;;4968729;28;20434;-75
2021/12/02 07:37:39;;;;;;;2.67;1.20;;;4.30;94.50;;;;;;4965672;28;20454;-74
2021/12/02 07:40:05;;;;;;;3.57;1.53;;;4.30;94.50;;;;;;4972573;28;20252;-76
2021/12/02 07:42:32;;;;;;;2.97;1.13;;;4.40;94.60;;;;;;5000448;28;20424;-75
2021/12/02 07:44:58;;;;;;;2.40;1.10;;;4.40;94.40;;;;;;4966343;28;20419;-75
2021/12/02 07:47:25;;;;;;;3.47;1.20;;;4.50;94.30;;;;;;4972384;28;20443;-75
2021/12/02 07:49:51;;;;;;;2.43;1.30;;;4.60;94.20;;;;;;4974189;28;20469;-74
2021/12/02 07:52:21;;;;;;;4.97;1.73;;;4.50;93.90;;;;;;4968330;28;20431;-75
2021/12/02 07:54:51;;;;;;;2.00;1.57;;;4.60;94.00;;;;;;4963958;28;20195;-76
2021/12/02 07:57:17;;;;;;;2.30;1.30;;;4.60;94.10;;;;;;4965625;28;20445;-76
2021/12/02 07:59:43;;;;;;;1.67;1.23;;;4.70;94.00;;;;;;4962481;28;20424;-76
2021/12/02 08:02:16;;;;;;;3.97;1.20;;;4.60;94.00;;;;;;4971383;28;20430;-75
2021/12/02 08:04:42;;;;;;;3.30;1.23;;;4.70;94.00;;;;;;5001327;28;20188;-75
2021/12/02 08:07:08;;;;;;;2.70;1.27;;;4.70;93.80;;;;;;4961309;28;20455;-76
2021/12/02 08:09:34;;;;;;;2.30;1.20;;;4.80;93.50;;;;;;4971176;28;20572;-74
2021/12/02 08:12:00;;;;;;;4.17;1.43;;;4.80;93.40;;;;;;4966810;28;20188;-76
2021/12/02 08:14:27;;;;;;;1.40;1.30;;;4.80;93.20;;;;;;4970185;28;20464;-76
2021/12/02 08:16:53;;;;;;;2.00;1.50;;;4.70;93.00;;;;;;4980977;28;20441;-76
2021/12/02 08:19:19;;;;;;;1.57;1.30;;;4.80;93.10;;;;;;5005807;28;20469;-76
2021/12/02 08:21:45;;;;;;;2.63;1.57;;;4.90;92.80;;;;;;4960319;28;20435;-74
2021/12/02 08:24:11;;;;;;;5.43;1.30;;;4.90;92.40;;;;;;4964239;28;20426;-75
2021/12/02 08:26:37;;;;;;;3.67;1.30;;;4.90;92.20;;;;;;5005242;28;20480;-77
2021/12/02 08:29:04;;;;;;;2.17;1.50;;;5.00;92.40;;;;;;4965749;28;20222;-76
2021/12/02 08:31:30;;;;;;;4.27;1.77;;;5.00;92.70;;;;;;4960049;28;20479;-75
2021/12/02 08:33:56;;;;;;;3.97;2.00;;;5.10;92.80;;;;;;4983128;28;20980;-76
2021/12/02 08:36:25;;;;;;;3.37;2.30;;;5.10;92.60;;;;;;4971343;28;20502;-76
2021/12/02 08:38:52;;;;;;;3.50;2.00;;;5.20;92.40;;;;;;4962802;28;20438;-75
2021/12/02 08:41:18;;;;;;;3.60;1.60;;;5.20;92.30;;;;;;4965538;28;20485;-75
2021/12/02 08:43:45;;;;;;;3.00;1.57;;;5.40;92.20;;;;;;4967388;28;20940;-76
2021/12/02 08:46:11;;;;;;;6.00;1.70;;;5.40;91.80;;;;;;4965690;28;20491;-75
2021/12/02 08:48:36;;;;;;;5.73;1.50;;;5.40;91.50;;;;;;4973605;28;20839;-76
2021/12/02 08:51:02;;;;;;;2.93;1.37;;;5.50;91.40;;;;;;4964376;28;20464;-75
2021/12/02 08:53:28;;;;;;;4.23;1.67;;;5.50;91.10;;;;;;4962543;28;20596;-76
2021/12/02 08:55:54;;;;;;;1.97;1.30;;;5.40;91.20;;;;;;4959980;28;20184;-76
2021/12/02 08:58:19;;;;;;;2.73;2.03;;;5.60;91.30;;;;;;4965214;28;20235;-77
2021/12/02 09:00:46;;;;;;;3.37;1.53;;;5.50;91.30;;;;;;4959138;28;20628;-76
2021/12/02 09:03:16;;;;;;;2.67;1.80;;;5.40;91.50;;;;;;4963061;28;20657;-76
2021/12/02 09:05:43;;;;;;;3.80;1.60;;;5.40;91.70;;;;;;4963702;28;20485;-76
2021/12/02 09:08:09;;;;;;;4.07;1.70;;;5.40;91.80;;;;;;4962792;28;20891;-75
2021/12/02 09:10:37;;;;;;;3.23;1.80;;;5.50;91.70;;;;;;4962935;28;20482;-76
2021/12/02 09:13:12;;;;;;;4.43;1.90;;;5.50;91.30;;;;;;4955574;28;20427;-76
2021/12/02 09:15:39;;;;;;;2.53;1.90;;;5.50;91.10;;;;;;4965977;28;20423;-77
2021/12/02 09:18:05;;;;;;;4.13;1.40;;;5.60;90.90;;;;;;4987306;28;20554;-76
2021/12/02 09:20:30;;;;;;;2.60;1.90;;;5.60;90.70;;;;;;4959511;28;20459;-76
2021/12/02 09:22:56;;;;;;;3.17;2.03;;;5.60;90.60;;;;;;4962764;28;20955;-74
2021/12/02 09:25:22;;;;;;;2.90;1.73;;;5.60;90.60;;;;;;4965591;28;20221;-75
2021/12/02 09:27:48;;;;;;;2.67;1.97;;;5.70;90.50;;;;;;4967006;28;20214;-76
2021/12/02 09:30:16;;;;;;;2.40;1.87;;;5.80;90.30;;;;;;4968706;28;20485;-75
2021/12/02 09:32:42;;;;;;;4.10;2.00;;;5.80;90.20;;;;;;4966811;28;20430;-77
2021/12/02 09:35:10;;;;;;;2.10;1.50;;;5.80;90.40;;;;;;4973678;28;20528;-77
2021/12/02 09:37:36;;;;;;;3.47;1.50;;;5.90;90.40;;;;;;4971674;28;20504;-77
2021/12/02 09:40:04;;;;;;;2.57;1.50;;;5.90;90.30;;;;;;4973901;28;20438;-76
2021/12/02 09:42:30;;;;;;;4.00;2.10;;;5.90;90.50;;;;;;4973756;28;20440;-75
2021/12/02 09:45:00;;;;;;;2.40;1.70;;;6.00;90.70;;;;;;4979404;28;20431;-76
2021/12/02 09:47:31;;;;;;;3.73;1.70;;;6.00;90.70;;;;;;5039575;28;20215;-76
2021/12/02 09:50:02;;;;;;;2.70;1.50;;;6.00;90.80;;;;;;4962986;28;20941;-76
2021/12/02 09:52:33;;;;;;;2.87;1.70;;;6.00;91.20;;;;;;4969337;28;20446;-76
2021/12/02 09:55:05;;;;;;;2.70;2.17;;;5.80;92.10;;;;;;4961481;28;20415;-75
2021/12/02 09:57:36;;;;;;;5.83;2.07;;;5.80;92.70;;;;;;4960585;28;20451;-77
2021/12/02 10:00:04;;;;;;;4.33;1.60;;;5.80;93.20;;;;;;4967852;28;20426;-77
2021/12/02 10:02:30;;;;;;;1.90;1.70;;;5.80;93.40;;;;;;4958865;28;20630;-76
2021/12/02 10:05:04;;;;;;;9.23;2.40;;;5.90;93.50;;;;;;4965012;28;21029;-77
2021/12/02 10:07:46;;;;;;;3.47;1.60;;;5.90;93.00;;;;;;4966789;28;20462;-78
2021/12/02 10:10:24;;;;;;;3.47;1.50;;;5.90;92.80;;;;;;4968500;28;20475;-76
2021/12/02 10:13:30;;;;;;;2.70;1.80;;;5.80;92.60;;;;;;4985136;28;20822;-77
2021/12/02 10:16:11;;;;;;;2.70;1.60;;;5.40;92.80;;;;;;5070662;28;20488;-77
2021/12/02 10:18:54;;;;;;;3.23;1.27;;;5.10;93.20;;;;;;5066992;28;20900;-75
2021/12/02 10:21:29;;;;;;;2.80;1.23;;;4.90;93.80;;;;;;5070892;28;20438;-76
2021/12/02 10:24:01;;;;;;;2.37;2.17;;;4.80;94.30;;;;;;5079182;28;20429;-76
2021/12/02 10:26:27;;;;;;;2.80;1.67;;;4.60;94.70;;;;;;5073187;28;20454;-76
2021/12/02 10:28:52;;;;;;;2.00;1.43;;;4.60;94.80;;;;;;5060675;28;20883;-77
2021/12/02 10:31:24;;;;;;;1.50;1.00;;;4.50;95.00;;;;;;5083283;28;20567;-76
2021/12/02 10:33:54;;;;;;;3.40;1.30;;;4.30;95.00;;;;;;5055766;28;20422;-77
2021/12/02 10:36:33;;;;;;;3.33;1.33;;;4.30;95.20;;;;;;5077021;28;20429;-76
2021/12/02 10:39:20;;;;;;;3.50;1.60;;;4.20;95.40;;;;;;5046807;28;20422;-76
2021/12/02 10:42:08;;;;;;;2.00;1.40;;;4.20;95.40;;;;;;5082214;28;20441;-76
2021/12/02 10:44:35;;;;;;;1.93;1.50;;;4.30;95.70;;;;;;5078784;28;20433;-75
2021/12/02 10:47:06;;;;;;;3.07;1.50;;;4.30;95.80;;;;;;5092929;28;20849;-76
2021/12/02 10:49:43;;;;;;;2.30;1.40;;;4.30;95.90;;;;;;5085595;28;20432;-74
2021/12/02 10:52:16;;;;;;;2.80;1.40;;;4.30;95.90;;;;;;5041121;28;20446;-75
2021/12/02 10:54:49;;;;;;;2.13;1.67;;;4.30;95.80;;;;;;4985005;28;20436;-75
2021/12/02 10:57:23;;;;;;;2.00;1.40;;;4.30;96.00;;;;;;4989646;28;20459;-75
2021/12/02 10:59:53;;;;;;;1.87;1.10;;;4.30;96.10;;;;;;4972255;28;20427;-75
2021/12/02 11:02:26;;;;;;;2.10;1.27;;;4.30;95.90;;;;;;5019589;28;20435;-76
2021/12/02 11:05:05;;;;;;;3.10;1.40;;;4.20;95.60;;;;;;5011460;28;20442;-74
2021/12/02 11:07:39;;;;;;;1.53;1.07;;;4.20;95.70;;;;;;5008928;28;20549;-76
2021/12/02 11:10:15;;;;;;;1.67;1.17;;;4.20;95.80;;;;;;4981483;28;20483;-76
2021/12/02 11:12:45;;;;;;;1.67;1.10;;;4.10;95.60;;;;;;5052503;28;20501;-75
2021/12/02 11:15:25;;;;;;;3.63;1.47;;;4.10;95.70;;;;;;4963739;28;20427;-75
2021/12/02 11:18:05;;;;;;;2.10;1.60;;;4.20;96.00;;;;;;4973194;28;20480;-73
2021/12/02 11:20:36;;;;;;;4.37;2.23;;;4.00;95.60;;;;;;5020706;28;20452;-75
2021/12/02 11:23:11;;;;;;;2.00;1.17;;;4.00;95.70;;;;;;5051175;28;21015;-76
2021/12/02 11:25:49;;;;;;;3.40;1.67;;;4.10;95.70;;;;;;5057731;28;20441;-77
2021/12/02 11:28:16;;;;;;;2.43;1.60;;;4.10;95.40;;;;;;4981105;28;20537;-75
2021/12/02 11:30:42;;;;;;;2.63;1.20;;;4.10;95.20;;;;;;4970064;28;20462;-73
2021/12/02 11:33:09;;;;;;;1.70;1.23;;;4.10;95.20;;;;;;4977751;28;20969;-76
2021/12/02 11:35:40;;;;;;;1.80;1.00;;;4.10;94.70;;;;;;5015662;28;20902;-74
2021/12/02 11:38:19;;;;;;;2.37;1.10;;;4.00;94.60;;;;;;4967274;28;20712;-76
2021/12/02 11:40:51;;;;;;;2.80;2.00;;;4.00;94.70;;;;;;5029126;28;20824;-76
2021/12/02 11:43:19;;;;;;;2.33;1.43;;;4.10;94.40;;;;;;5001775;28;20415;-76
2021/12/02 11:45:49;;;;;;;1.70;1.30;;;4.20;94.70;;;;;;4987879;28;20434;-76
2021/12/02 11:48:30;;;;;;;1.97;1.20;;;4.30;94.50;;;;;;4970813;28;20849;-76
2021/12/02 11:50:58;;;;;;;1.63;1.30;;;4.40;94.40;;;;;;4970666;28;20482;-76
2021/12/02 11:53:24;;;;;;;3.43;1.50;;;4.50;93.80;;;;;;4974892;28;20426;-76
2021/12/02 11:55:59;;;;;;;2.50;1.67;;;4.50;93.50;;;;;;4999290;28;20930;-75
2021/12/02 11:58:27;;;;;;;1.70;1.17;;;4.50;93.20;;;;;;4968021;28;20481;-76
2021/12/02 12:00:54;;;;;;;1.30;1.10;;;4.50;92.30;;;;;;4973121;28;20653;-76
2021/12/02 12:03:37;;;;;;;2.20;1.03;;;4.50;92.30;;;;;;5001922;28;20525;-76
2021/12/02 12:06:22;;;;;;;3.80;1.20;;;4.50;92.50;;;;;;4959653;28;20430;-76
2021/12/02 12:08:51;;;;;;;2.70;1.20;;;4.60;92.60;;;;;;4966997;28;20432;-75
2021/12/02 12:11:24;;;;;;;1.90;1.57;;;4.70;93.00;;;;;;4970224;28;20463;-77
2021/12/02 12:13:52;;;;;;;2.30;1.30;;;4.80;93.10;;;;;;4997755;28;20426;-76
2021/12/02 12:16:20;;;;;;;2.60;1.93;;;4.80;92.70;;;;;;4976123;28;20419;-75
2021/12/02 12:18:47;;;;;;;2.93;1.50;;;4.80;92.40;;;;;;4963515;28;20419;-77
2021/12/02 12:21:13;;;;;;;2.40;1.60;;;5.00;92.20;;;;;;4989803;28;20422;-77
2021/12/02 12:23:59;;;;;;;2.50;1.57;;;5.00;92.00;;;;;;4965855;28;20455;-75
2021/12/02 12:26:31;;;;;;;2.47;1.20;;;5.10;91.50;;;;;;4967072;28;20452;-76
2021/12/02 12:29:06;;;;;;;3.33;1.63;;;5.10;91.50;;;;;;4960411;28;20437;-77
2021/12/02 12:40:48;;;;;;;3.33;1.63;;;5.40;92.00;;;;;;4972017;28;20427;-75
2021/12/02 12:43:13;;;;;;;3.80;1.87;;;5.30;91.40;;;;;;4997282;28;20517;-75
2021/12/02 12:45:42;;;;;;;1.70;1.60;;;5.20;91.40;;;;;;5031547;28;20465;-75
2021/12/02 12:48:29;;;;;;;2.57;2.00;;;5.30;91.40;;;;;;4994606;28;20238;-76
2021/12/02 12:51:09;;;;;;;2.13;1.83;;;5.30;90.40;;;;;;4963994;28;20458;-76
2021/12/02 12:53:38;;;;;;;5.23;2.13;;;5.20;91.00;;;;;;4969289;28;20441;-77
2021/12/02 12:56:10;;;;;;;3.33;1.70;;;5.20;91.00;;;;;;4962566;28;20427;-75
2021/12/02 12:58:57;;;;;;;2.60;1.67;;;5.30;91.30;;;;;;4971541;28;20967;-76
2021/12/02 13:01:26;;;;;;;3.20;2.07;;;5.20;91.00;;;;;;4963752;28;20426;-76
2021/12/02 13:04:15;;;;;;;3.70;1.80;;;5.30;90.50;;;;;;4963359;28;20430;-75
2021/12/02 13:06:51;;;;;;;2.90;1.97;;;5.50;90.60;;;;;;5006517;28;20865;-76
2021/12/02 13:09:41;;;;;;;7.00;2.40;;;5.50;90.00;;;;;;4961357;28;20535;-76
2021/12/02 13:12:12;;;;;;;2.73;1.77;;;5.40;89.20;;;;;;4997317;28;20434;-76
2021/12/02 13:14:42;;;;;;;2.50;1.60;;;5.40;89.90;;;;;;4963743;28;20453;-76
2021/12/02 13:17:37;;;;;;;3.57;2.00;;;5.30;89.90;;;;;;4960919;28;20442;-76
2021/12/02 13:20:19;;;;;;;3.63;2.00;;;5.30;89.90;;;;;;4968555;28;20455;-76
2021/12/02 13:22:47;;;;;;;5.00;1.97;;;5.30;90.50;;;;;;4970205;28;20433;-77
2021/12/02 13:25:40;;;;;;;2.47;1.90;;;5.20;90.60;;;;;;4969184;28;20415;-75
2021/12/02 13:28:18;;;;;;;5.03;2.83;;;5.20;90.60;;;;;;4968846;28;20466;-76
2021/12/02 13:30:53;;;;;;;3.40;2.07;;;5.20;90.60;;;;;;4970590;28;20551;-75
2021/12/02 13:33:19;;;;;;;4.07;2.53;;;5.30;90.40;;;;;;5011173;28;20964;-76
2021/12/02 13:35:45;;;;;;;7.33;3.47;;;5.40;90.50;;;;;;4974954;28;20422;-74